sensor_id;sensor_type;location;lat;lon;timestamp;P1;durP1;ratioP1;P2;durP2;ratioP2
48516;SDS011;34310;51.904;4.256;2024-02-14T00:02:24;5.38;;;4.88;;
48516;SDS011;34310;51.904;4.256;2024-02-14T00:04:50;5.85;;;4.90;;
48516;SDS011;34310;51.904;4.256;2024-02-14T00:07:18;5.85;;;5.25;;
48516;SDS011;34310;51.904;4.256;2024-02-14T00:09:44;5.75;;;4.68;;
48516;SDS011;34310;51.904;4.256;2024-02-14T00:12:11;5.65;;;4.88;;
48516;SDS011;34310;51.904;4.256;2024-02-14T00:14:38;6.07;;;4.63;;
48516;SDS011;34310;51.904;4.256;2024-02-14T00:17:05;5.80;;;4.90;;
48516;SDS011;34310;51.904;4.256;2024-02-14T00:19:31;5.40;;;4.65;;
48516;SDS011;34310;51.904;4.256;2024-02-14T00:21:58;4.97;;;4.47;;
48516;SDS011;34310;51.904;4.256;2024-02-14T00:24:24;5.30;;;4.38;;
48516;SDS011;34310;51.904;4.256;2024-02-14T00:26:51;5.25;;;4.40;;
48516;SDS011;34310;51.904;4.256;2024-02-14T00:29:17;4.30;;;3.90;;
48516;SDS011;34310;51.904;4.256;2024-02-14T00:31:44;4.40;;;3.95;;
48516;SDS011;34310;51.904;4.256;2024-02-14T00:34:10;6.38;;;5.03;;
48516;SDS011;34310;51.904;4.256;2024-02-14T00:36:37;5.60;;;4.28;;
48516;SDS011;34310;51.904;4.256;2024-02-14T00:39:04;4.65;;;4.15;;
48516;SDS011;34310;51.904;4.256;2024-02-14T00:41:30;5.20;;;4.30;;
48516;SDS011;34310;51.904;4.256;2024-02-14T00:43:57;5.22;;;4.22;;
48516;SDS011;34310;51.904;4.256;2024-02-14T00:46:24;5.13;;;4.22;;
48516;SDS011;34310;51.904;4.256;2024-02-14T00:48:50;4.82;;;4.18;;
48516;SDS011;34310;51.904;4.256;2024-02-14T00:51:17;4.88;;;4.07;;
48516;SDS011;34310;51.904;4.256;2024-02-14T00:53:43;4.90;;;4.05;;
48516;SDS011;34310;51.904;4.256;2024-02-14T00:56:10;4.40;;;4.00;;
48516;SDS011;34310;51.904;4.256;2024-02-14T00:58:36;4.47;;;4.03;;
48516;SDS011;34310;51.904;4.256;2024-02-14T01:01:03;4.60;;;3.85;;
48516;SDS011;34310;51.904;4.256;2024-02-14T01:03:30;4.85;;;3.95;;
48516;SDS011;34310;51.904;4.256;2024-02-14T01:05:57;4.68;;;3.72;;
48516;SDS011;34310;51.904;4.256;2024-02-14T01:08:24;4.32;;;3.80;;
48516;SDS011;34310;51.904;4.256;2024-02-14T01:10:50;4.18;;;3.35;;
48516;SDS011;34310;51.904;4.256;2024-02-14T01:13:17;4.05;;;3.35;;
48516;SDS011;34310;51.904;4.256;2024-02-14T01:15:44;3.53;;;3.22;;
48516;SDS011;34310;51.904;4.256;2024-02-14T01:18:11;4.03;;;3.55;;
48516;SDS011;34310;51.904;4.256;2024-02-14T01:20:38;4.07;;;3.67;;
48516;SDS011;34310;51.904;4.256;2024-02-14T01:23:05;3.85;;;3.35;;
48516;SDS011;34310;51.904;4.256;2024-02-14T01:25:31;3.70;;;3.40;;
48516;SDS011;34310;51.904;4.256;2024-02-14T01:27:58;3.85;;;3.15;;
48516;SDS011;34310;51.904;4.256;2024-02-14T01:30:25;3.55;;;3.10;;
48516;SDS011;34310;51.904;4.256;2024-02-14T01:32:52;4.40;;;3.30;;
48516;SDS011;34310;51.904;4.256;2024-02-14T01:35:18;4.18;;;3.47;;
48516;SDS011;34310;51.904;4.256;2024-02-14T01:37:45;3.55;;;3.10;;
48516;SDS011;34310;51.904;4.256;2024-02-14T01:40:11;3.90;;;3.50;;
48516;SDS011;34310;51.904;4.256;2024-02-14T01:42:38;3.40;;;3.10;;
48516;SDS011;34310;51.904;4.256;2024-02-14T01:45:05;4.18;;;3.40;;
48516;SDS011;34310;51.904;4.256;2024-02-14T01:47:32;3.20;;;2.90;;
48516;SDS011;34310;51.904;4.256;2024-02-14T01:49:59;3.53;;;3.22;;
48516;SDS011;34310;51.904;4.256;2024-02-14T01:52:27;2.90;;;2.60;;
48516;SDS011;34310;51.904;4.256;2024-02-14T01:54:53;3.35;;;2.67;;
48516;SDS011;34310;51.904;4.256;2024-02-14T01:57:20;2.90;;;2.60;;
48516;SDS011;34310;51.904;4.256;2024-02-14T01:59:47;3.00;;;2.50;;
48516;SDS011;34310;51.904;4.256;2024-02-14T02:02:15;2.53;;;2.33;;
48516;SDS011;34310;51.904;4.256;2024-02-14T02:04:42;2.83;;;2.28;;
48516;SDS011;34310;51.904;4.256;2024-02-14T02:07:09;3.17;;;2.38;;
48516;SDS011;34310;51.904;4.256;2024-02-14T02:09:35;2.80;;;2.50;;
48516;SDS011;34310;51.904;4.256;2024-02-14T02:12:02;2.70;;;2.47;;
48516;SDS011;34310;51.904;4.256;2024-02-14T02:14:29;3.08;;;2.47;;
48516;SDS011;34310;51.904;4.256;2024-02-14T02:16:55;3.40;;;2.05;;
48516;SDS011;34310;51.904;4.256;2024-02-14T02:19:22;2.35;;;2.13;;
48516;SDS011;34310;51.904;4.256;2024-02-14T02:21:49;2.83;;;2.17;;
48516;SDS011;34310;51.904;4.256;2024-02-14T02:24:15;2.65;;;2.00;;
48516;SDS011;34310;51.904;4.256;2024-02-14T02:26:42;2.40;;;2.20;;
48516;SDS011;34310;51.904;4.256;2024-02-14T02:29:08;3.65;;;2.42;;
48516;SDS011;34310;51.904;4.256;2024-02-14T02:31:35;2.80;;;2.10;;
48516;SDS011;34310;51.904;4.256;2024-02-14T02:34:02;2.83;;;1.98;;
48516;SDS011;34310;51.904;4.256;2024-02-14T02:36:29;2.33;;;2.10;;
48516;SDS011;34310;51.904;4.256;2024-02-14T02:38:56;3.75;;;2.10;;
48516;SDS011;34310;51.904;4.256;2024-02-14T02:41:22;3.17;;;2.03;;
48516;SDS011;34310;51.904;4.256;2024-02-14T02:43:49;3.40;;;2.05;;
48516;SDS011;34310;51.904;4.256;2024-02-14T02:46:15;3.42;;;2.10;;
48516;SDS011;34310;51.904;4.256;2024-02-14T02:48:42;4.88;;;2.20;;
48516;SDS011;34310;51.904;4.256;2024-02-14T02:51:09;4.93;;;2.40;;
48516;SDS011;34310;51.904;4.256;2024-02-14T02:53:35;3.08;;;1.95;;
48516;SDS011;34310;51.904;4.256;2024-02-14T02:56:02;3.92;;;2.00;;
48516;SDS011;34310;51.904;4.256;2024-02-14T02:58:29;3.55;;;2.05;;
48516;SDS011;34310;51.904;4.256;2024-02-14T03:00:55;3.97;;;1.88;;
48516;SDS011;34310;51.904;4.256;2024-02-14T03:03:22;3.55;;;2.13;;
48516;SDS011;34310;51.904;4.256;2024-02-14T03:05:48;3.25;;;1.90;;
48516;SDS011;34310;51.904;4.256;2024-02-14T03:08:15;4.30;;;2.10;;
48516;SDS011;34310;51.904;4.256;2024-02-14T03:10:42;3.20;;;2.00;;
48516;SDS011;34310;51.904;4.256;2024-02-14T03:13:08;3.38;;;2.20;;
48516;SDS011;34310;51.904;4.256;2024-02-14T03:15:35;3.58;;;2.03;;
48516;SDS011;34310;51.904;4.256;2024-02-14T03:18:01;3.95;;;1.98;;
48516;SDS011;34310;51.904;4.256;2024-02-14T03:20:28;4.28;;;2.00;;
48516;SDS011;34310;51.904;4.256;2024-02-14T03:22:55;5.72;;;2.50;;
48516;SDS011;34310;51.904;4.256;2024-02-14T03:25:21;4.88;;;2.17;;
48516;SDS011;34310;51.904;4.256;2024-02-14T03:27:48;3.05;;;1.95;;
48516;SDS011;34310;51.904;4.256;2024-02-14T03:30:15;3.67;;;1.85;;
48516;SDS011;34310;51.904;4.256;2024-02-14T03:32:42;3.47;;;2.05;;
48516;SDS011;34310;51.904;4.256;2024-02-14T03:35:09;3.70;;;1.85;;
48516;SDS011;34310;51.904;4.256;2024-02-14T03:37:35;4.60;;;2.47;;
48516;SDS011;34310;51.904;4.256;2024-02-14T03:40:03;4.38;;;2.20;;
48516;SDS011;34310;51.904;4.256;2024-02-14T03:42:30;5.20;;;2.30;;
48516;SDS011;34310;51.904;4.256;2024-02-14T03:44:57;5.25;;;2.17;;
48516;SDS011;34310;51.904;4.256;2024-02-14T03:47:23;3.92;;;2.25;;
48516;SDS011;34310;51.904;4.256;2024-02-14T03:49:50;4.28;;;1.92;;
48516;SDS011;34310;51.904;4.256;2024-02-14T03:52:16;4.15;;;2.13;;
48516;SDS011;34310;51.904;4.256;2024-02-14T03:54:43;4.90;;;2.22;;
48516;SDS011;34310;51.904;4.256;2024-02-14T03:57:10;3.42;;;1.80;;
48516;SDS011;34310;51.904;4.256;2024-02-14T03:59:36;3.63;;;1.98;;
48516;SDS011;34310;51.904;4.256;2024-02-14T04:02:03;3.75;;;2.00;;
48516;SDS011;34310;51.904;4.256;2024-02-14T04:04:30;4.30;;;2.15;;
48516;SDS011;34310;51.904;4.256;2024-02-14T04:06:56;6.45;;;2.50;;
48516;SDS011;34310;51.904;4.256;2024-02-14T04:09:23;5.10;;;2.15;;
48516;SDS011;34310;51.904;4.256;2024-02-14T04:11:49;4.38;;;1.90;;
48516;SDS011;34310;51.904;4.256;2024-02-14T04:14:16;5.35;;;2.03;;
48516;SDS011;34310;51.904;4.256;2024-02-14T04:16:43;3.80;;;1.67;;
48516;SDS011;34310;51.904;4.256;2024-02-14T04:19:09;2.97;;;1.80;;
48516;SDS011;34310;51.904;4.256;2024-02-14T04:21:37;3.88;;;2.03;;
48516;SDS011;34310;51.904;4.256;2024-02-14T04:24:04;3.45;;;2.15;;
48516;SDS011;34310;51.904;4.256;2024-02-14T04:26:30;4.43;;;2.20;;
48516;SDS011;34310;51.904;4.256;2024-02-14T04:28:57;4.72;;;2.45;;
48516;SDS011;34310;51.904;4.256;2024-02-14T04:31:24;5.28;;;2.17;;
48516;SDS011;34310;51.904;4.256;2024-02-14T04:33:50;3.15;;;1.90;;
48516;SDS011;34310;51.904;4.256;2024-02-14T04:36:18;4.28;;;2.05;;
48516;SDS011;34310;51.904;4.256;2024-02-14T04:38:44;5.60;;;2.47;;
48516;SDS011;34310;51.904;4.256;2024-02-14T04:41:12;3.42;;;1.85;;
48516;SDS011;34310;51.904;4.256;2024-02-14T04:43:39;3.15;;;2.10;;
48516;SDS011;34310;51.904;4.256;2024-02-14T04:46:06;2.72;;;1.90;;
48516;SDS011;34310;51.904;4.256;2024-02-14T04:48:33;4.78;;;1.90;;
48516;SDS011;34310;51.904;4.256;2024-02-14T04:51:00;2.53;;;1.88;;
48516;SDS011;34310;51.904;4.256;2024-02-14T04:53:31;3.00;;;1.92;;
48516;SDS011;34310;51.904;4.256;2024-02-14T04:55:58;3.42;;;1.85;;
48516;SDS011;34310;51.904;4.256;2024-02-14T04:58:24;3.50;;;1.98;;
48516;SDS011;34310;51.904;4.256;2024-02-14T05:00:51;2.53;;;1.60;;
48516;SDS011;34310;51.904;4.256;2024-02-14T05:03:17;3.15;;;1.65;;
48516;SDS011;34310;51.904;4.256;2024-02-14T05:05:44;3.42;;;1.60;;
48516;SDS011;34310;51.904;4.256;2024-02-14T05:08:11;2.72;;;1.58;;
48516;SDS011;34310;51.904;4.256;2024-02-14T05:10:37;3.50;;;1.73;;
48516;SDS011;34310;51.904;4.256;2024-02-14T05:13:04;4.22;;;1.80;;
48516;SDS011;34310;51.904;4.256;2024-02-14T05:15:31;2.97;;;1.58;;
48516;SDS011;34310;51.904;4.256;2024-02-14T05:17:57;3.97;;;2.33;;
48516;SDS011;34310;51.904;4.256;2024-02-14T05:20:24;3.50;;;1.98;;
48516;SDS011;34310;51.904;4.256;2024-02-14T05:22:50;4.18;;;2.13;;
48516;SDS011;34310;51.904;4.256;2024-02-14T05:25:17;2.47;;;1.70;;
48516;SDS011;34310;51.904;4.256;2024-02-14T05:27:43;3.55;;;1.98;;
48516;SDS011;34310;51.904;4.256;2024-02-14T05:30:10;3.33;;;2.22;;
48516;SDS011;34310;51.904;4.256;2024-02-14T05:32:37;4.20;;;2.60;;
48516;SDS011;34310;51.904;4.256;2024-02-14T05:35:03;4.15;;;2.60;;
48516;SDS011;34310;51.904;4.256;2024-02-14T05:37:30;4.85;;;2.92;;
48516;SDS011;34310;51.904;4.256;2024-02-14T05:39:57;3.63;;;2.80;;
48516;SDS011;34310;51.904;4.256;2024-02-14T05:42:24;4.88;;;3.08;;
48516;SDS011;34310;51.904;4.256;2024-02-14T05:44:50;4.35;;;3.05;;
48516;SDS011;34310;51.904;4.256;2024-02-14T05:47:17;6.38;;;3.50;;
48516;SDS011;34310;51.904;4.256;2024-02-14T05:49:43;5.50;;;3.67;;
48516;SDS011;34310;51.904;4.256;2024-02-14T05:52:10;7.60;;;3.90;;
48516;SDS011;34310;51.904;4.256;2024-02-14T05:54:37;4.95;;;3.75;;
48516;SDS011;34310;51.904;4.256;2024-02-14T05:57:04;7.57;;;4.28;;
48516;SDS011;34310;51.904;4.256;2024-02-14T05:59:30;5.90;;;4.20;;
48516;SDS011;34310;51.904;4.256;2024-02-14T06:01:57;6.60;;;4.00;;
48516;SDS011;34310;51.904;4.256;2024-02-14T06:04:24;6.05;;;4.65;;
48516;SDS011;34310;51.904;4.256;2024-02-14T06:06:50;7.53;;;5.00;;
48516;SDS011;34310;51.904;4.256;2024-02-14T06:09:17;7.63;;;5.03;;
48516;SDS011;34310;51.904;4.256;2024-02-14T06:11:43;6.80;;;5.00;;
48516;SDS011;34310;51.904;4.256;2024-02-14T06:14:10;7.07;;;5.28;;
48516;SDS011;34310;51.904;4.256;2024-02-14T06:16:36;8.63;;;5.97;;
48516;SDS011;34310;51.904;4.256;2024-02-14T06:19:03;8.85;;;5.57;;
48516;SDS011;34310;51.904;4.256;2024-02-14T06:21:31;8.23;;;6.03;;
48516;SDS011;34310;51.904;4.256;2024-02-14T06:23:58;8.45;;;6.00;;
48516;SDS011;34310;51.904;4.256;2024-02-14T06:26:26;8.00;;;5.75;;
48516;SDS011;34310;51.904;4.256;2024-02-14T06:28:53;9.00;;;6.43;;
48516;SDS011;34310;51.904;4.256;2024-02-14T06:31:19;9.10;;;7.07;;
48516;SDS011;34310;51.904;4.256;2024-02-14T06:33:46;8.10;;;5.78;;
48516;SDS011;34310;51.904;4.256;2024-02-14T06:36:13;8.98;;;6.60;;
48516;SDS011;34310;51.904;4.256;2024-02-14T06:38:40;8.15;;;5.53;;
48516;SDS011;34310;51.904;4.256;2024-02-14T06:41:07;8.55;;;6.57;;
48516;SDS011;34310;51.904;4.256;2024-02-14T06:43:33;9.30;;;6.63;;
48516;SDS011;34310;51.904;4.256;2024-02-14T06:46:00;10.48;;;7.13;;
48516;SDS011;34310;51.904;4.256;2024-02-14T06:48:26;9.88;;;7.82;;
48516;SDS011;34310;51.904;4.256;2024-02-14T06:50:53;10.80;;;7.13;;
48516;SDS011;34310;51.904;4.256;2024-02-14T06:53:20;11.63;;;7.95;;
48516;SDS011;34310;51.904;4.256;2024-02-14T06:55:46;10.38;;;7.90;;
48516;SDS011;34310;51.904;4.256;2024-02-14T06:58:13;9.70;;;6.95;;
48516;SDS011;34310;51.904;4.256;2024-02-14T07:00:39;11.38;;;7.93;;
48516;SDS011;34310;51.904;4.256;2024-02-14T07:03:06;11.02;;;7.72;;
48516;SDS011;34310;51.904;4.256;2024-02-14T07:05:33;8.35;;;6.18;;
48516;SDS011;34310;51.904;4.256;2024-02-14T07:08:00;8.68;;;6.43;;
48516;SDS011;34310;51.904;4.256;2024-02-14T07:10:26;10.65;;;6.43;;
48516;SDS011;34310;51.904;4.256;2024-02-14T07:12:53;11.55;;;6.80;;
48516;SDS011;34310;51.904;4.256;2024-02-14T07:15:19;8.95;;;6.60;;
48516;SDS011;34310;51.904;4.256;2024-02-14T07:17:46;8.15;;;6.72;;
48516;SDS011;34310;51.904;4.256;2024-02-14T07:20:13;9.93;;;6.80;;
48516;SDS011;34310;51.904;4.256;2024-02-14T07:22:39;10.77;;;7.60;;
48516;SDS011;34310;51.904;4.256;2024-02-14T07:25:06;12.00;;;6.80;;
48516;SDS011;34310;51.904;4.256;2024-02-14T07:27:33;9.82;;;6.65;;
48516;SDS011;34310;51.904;4.256;2024-02-14T07:29:59;9.05;;;6.82;;
48516;SDS011;34310;51.904;4.256;2024-02-14T07:32:26;10.32;;;6.68;;
48516;SDS011;34310;51.904;4.256;2024-02-14T07:34:53;9.20;;;6.50;;
48516;SDS011;34310;51.904;4.256;2024-02-14T07:37:19;8.82;;;6.47;;
48516;SDS011;34310;51.904;4.256;2024-02-14T07:39:46;9.50;;;6.63;;
48516;SDS011;34310;51.904;4.256;2024-02-14T07:42:13;9.52;;;6.20;;
48516;SDS011;34310;51.904;4.256;2024-02-14T07:44:39;8.25;;;6.35;;
48516;SDS011;34310;51.904;4.256;2024-02-14T07:47:06;8.80;;;6.63;;
48516;SDS011;34310;51.904;4.256;2024-02-14T07:49:33;8.77;;;6.13;;
48516;SDS011;34310;51.904;4.256;2024-02-14T07:52:00;7.95;;;6.40;;
48516;SDS011;34310;51.904;4.256;2024-02-14T07:54:26;7.72;;;6.05;;
48516;SDS011;34310;51.904;4.256;2024-02-14T07:56:53;10.18;;;6.88;;
48516;SDS011;34310;51.904;4.256;2024-02-14T07:59:20;9.68;;;6.97;;
48516;SDS011;34310;51.904;4.256;2024-02-14T08:01:46;10.90;;;7.10;;
48516;SDS011;34310;51.904;4.256;2024-02-14T08:04:13;8.93;;;7.15;;
48516;SDS011;34310;51.904;4.256;2024-02-14T08:06:39;9.77;;;7.40;;
48516;SDS011;34310;51.904;4.256;2024-02-14T08:09:06;10.05;;;7.07;;
48516;SDS011;34310;51.904;4.256;2024-02-14T08:11:33;9.07;;;6.93;;
48516;SDS011;34310;51.904;4.256;2024-02-14T08:14:00;8.70;;;6.40;;
48516;SDS011;34310;51.904;4.256;2024-02-14T08:16:26;10.20;;;7.45;;
48516;SDS011;34310;51.904;4.256;2024-02-14T08:18:53;11.45;;;6.63;;
48516;SDS011;34310;51.904;4.256;2024-02-14T08:21:20;9.48;;;6.65;;
48516;SDS011;34310;51.904;4.256;2024-02-14T08:23:47;9.25;;;6.53;;
48516;SDS011;34310;51.904;4.256;2024-02-14T08:26:15;9.00;;;6.50;;
48516;SDS011;34310;51.904;4.256;2024-02-14T08:28:42;8.65;;;6.00;;
48516;SDS011;34310;51.904;4.256;2024-02-14T08:31:09;8.38;;;6.30;;
48516;SDS011;34310;51.904;4.256;2024-02-14T08:33:39;8.00;;;6.13;;
48516;SDS011;34310;51.904;4.256;2024-02-14T08:36:06;8.25;;;6.03;;
48516;SDS011;34310;51.904;4.256;2024-02-14T08:38:35;8.50;;;6.32;;
48516;SDS011;34310;51.904;4.256;2024-02-14T08:41:02;8.15;;;6.50;;
48516;SDS011;34310;51.904;4.256;2024-02-14T08:43:29;7.88;;;6.50;;
48516;SDS011;34310;51.904;4.256;2024-02-14T08:45:56;7.43;;;5.63;;
48516;SDS011;34310;51.904;4.256;2024-02-14T08:48:23;7.30;;;5.85;;
48516;SDS011;34310;51.904;4.256;2024-02-14T08:50:50;7.55;;;5.75;;
48516;SDS011;34310;51.904;4.256;2024-02-14T08:53:17;7.57;;;5.85;;
48516;SDS011;34310;51.904;4.256;2024-02-14T08:55:43;8.05;;;5.80;;
48516;SDS011;34310;51.904;4.256;2024-02-14T08:58:10;7.30;;;5.47;;
48516;SDS011;34310;51.904;4.256;2024-02-14T09:00:36;7.53;;;5.47;;
48516;SDS011;34310;51.904;4.256;2024-02-14T09:03:03;7.03;;;5.47;;
48516;SDS011;34310;51.904;4.256;2024-02-14T09:05:31;7.45;;;5.15;;
48516;SDS011;34310;51.904;4.256;2024-02-14T09:07:59;7.90;;;5.63;;
48516;SDS011;34310;51.904;4.256;2024-02-14T09:10:26;6.95;;;5.47;;
48516;SDS011;34310;51.904;4.256;2024-02-14T09:12:52;6.85;;;5.20;;
48516;SDS011;34310;51.904;4.256;2024-02-14T09:15:19;6.50;;;5.30;;
48516;SDS011;34310;51.904;4.256;2024-02-14T09:17:45;5.97;;;5.15;;
48516;SDS011;34310;51.904;4.256;2024-02-14T09:20:12;6.00;;;5.07;;
48516;SDS011;34310;51.904;4.256;2024-02-14T09:22:39;5.93;;;4.80;;
48516;SDS011;34310;51.904;4.256;2024-02-14T09:25:06;5.88;;;5.05;;
48516;SDS011;34310;51.904;4.256;2024-02-14T09:27:33;5.95;;;5.03;;
48516;SDS011;34310;51.904;4.256;2024-02-14T09:30:00;5.72;;;4.65;;
48516;SDS011;34310;51.904;4.256;2024-02-14T09:32:26;5.35;;;4.50;;
48516;SDS011;34310;51.904;4.256;2024-02-14T09:34:53;6.10;;;5.07;;
48516;SDS011;34310;51.904;4.256;2024-02-14T09:37:20;5.35;;;4.82;;
48516;SDS011;34310;51.904;4.256;2024-02-14T09:39:46;5.20;;;4.43;;
48516;SDS011;34310;51.904;4.256;2024-02-14T09:42:13;5.25;;;4.53;;
48516;SDS011;34310;51.904;4.256;2024-02-14T09:44:42;5.15;;;4.43;;
48516;SDS011;34310;51.904;4.256;2024-02-14T09:47:11;4.90;;;4.15;;
48516;SDS011;34310;51.904;4.256;2024-02-14T09:49:39;5.28;;;3.97;;
48516;SDS011;34310;51.904;4.256;2024-02-14T09:52:08;4.50;;;4.10;;
48516;SDS011;34310;51.904;4.256;2024-02-14T09:54:38;5.60;;;4.28;;
48516;SDS011;34310;51.904;4.256;2024-02-14T09:57:06;4.25;;;3.75;;
48516;SDS011;34310;51.904;4.256;2024-02-14T09:59:33;3.90;;;3.50;;
48516;SDS011;34310;51.904;4.256;2024-02-14T10:02:02;4.15;;;3.53;;
48516;SDS011;34310;51.904;4.256;2024-02-14T10:04:29;4.43;;;3.60;;
48516;SDS011;34310;51.904;4.256;2024-02-14T10:06:55;3.53;;;3.22;;
48516;SDS011;34310;51.904;4.256;2024-02-14T10:09:22;3.45;;;3.10;;
48516;SDS011;34310;51.904;4.256;2024-02-14T10:11:49;3.67;;;3.35;;
48516;SDS011;34310;51.904;4.256;2024-02-14T10:14:16;5.13;;;3.60;;
48516;SDS011;34310;51.904;4.256;2024-02-14T10:16:42;3.72;;;3.30;;
48516;SDS011;34310;51.904;4.256;2024-02-14T10:19:15;4.40;;;3.13;;
48516;SDS011;34310;51.904;4.256;2024-02-14T10:21:43;4.90;;;3.60;;
48516;SDS011;34310;51.904;4.256;2024-02-14T10:24:11;3.95;;;3.42;;
48516;SDS011;34310;51.904;4.256;2024-02-14T10:26:38;3.15;;;2.85;;
48516;SDS011;34310;51.904;4.256;2024-02-14T10:29:05;3.35;;;3.05;;
48516;SDS011;34310;51.904;4.256;2024-02-14T10:31:32;3.40;;;3.10;;
48516;SDS011;34310;51.904;4.256;2024-02-14T10:34:00;4.15;;;3.20;;
48516;SDS011;34310;51.904;4.256;2024-02-14T10:36:28;3.80;;;3.35;;
48516;SDS011;34310;51.904;4.256;2024-02-14T10:38:55;3.97;;;3.25;;
48516;SDS011;34310;51.904;4.256;2024-02-14T10:41:23;4.05;;;3.35;;
48516;SDS011;34310;51.904;4.256;2024-02-14T10:43:50;3.90;;;2.92;;
48516;SDS011;34310;51.904;4.256;2024-02-14T10:46:20;3.38;;;2.60;;
48516;SDS011;34310;51.904;4.256;2024-02-14T10:48:47;3.67;;;3.08;;
48516;SDS011;34310;51.904;4.256;2024-02-14T10:51:13;4.13;;;3.70;;
48516;SDS011;34310;51.904;4.256;2024-02-14T10:53:41;3.22;;;2.92;;
48516;SDS011;34310;51.904;4.256;2024-02-14T10:56:18;3.50;;;3.05;;
48516;SDS011;34310;51.904;4.256;2024-02-14T10:58:45;3.40;;;3.10;;
48516;SDS011;34310;51.904;4.256;2024-02-14T11:01:13;3.90;;;3.10;;
48516;SDS011;34310;51.904;4.256;2024-02-14T11:03:41;3.28;;;2.83;;
48516;SDS011;34310;51.904;4.256;2024-02-14T11:06:08;3.42;;;2.70;;
48516;SDS011;34310;51.904;4.256;2024-02-14T11:08:35;3.30;;;3.00;;
48516;SDS011;34310;51.904;4.256;2024-02-14T11:11:02;3.03;;;2.72;;
48516;SDS011;34310;51.904;4.256;2024-02-14T11:13:29;3.08;;;2.78;;
48516;SDS011;34310;51.904;4.256;2024-02-14T11:15:56;3.08;;;2.78;;
48516;SDS011;34310;51.904;4.256;2024-02-14T11:18:27;3.03;;;2.72;;
48516;SDS011;34310;51.904;4.256;2024-02-14T11:20:54;3.35;;;3.05;;
48516;SDS011;34310;51.904;4.256;2024-02-14T11:23:21;3.78;;;2.80;;
48516;SDS011;34310;51.904;4.256;2024-02-14T11:25:48;3.15;;;2.50;;
48516;SDS011;34310;51.904;4.256;2024-02-14T11:28:15;3.00;;;2.55;;
48516;SDS011;34310;51.904;4.256;2024-02-14T11:30:43;3.45;;;2.80;;
48516;SDS011;34310;51.904;4.256;2024-02-14T11:35:41;3.30;;;2.50;;
48516;SDS011;34310;51.904;4.256;2024-02-14T11:38:09;3.35;;;2.50;;
48516;SDS011;34310;51.904;4.256;2024-02-14T11:40:36;2.90;;;2.60;;
48516;SDS011;34310;51.904;4.256;2024-02-14T11:43:03;2.83;;;2.53;;
48516;SDS011;34310;51.904;4.256;2024-02-14T11:45:30;2.38;;;2.17;;
48516;SDS011;34310;51.904;4.256;2024-02-14T11:47:56;2.38;;;2.17;;
48516;SDS011;34310;51.904;4.256;2024-02-14T11:50:23;2.33;;;2.10;;
48516;SDS011;34310;51.904;4.256;2024-02-14T11:52:50;2.67;;;2.40;;
48516;SDS011;34310;51.904;4.256;2024-02-14T11:55:17;2.47;;;2.20;;
48516;SDS011;34310;51.904;4.256;2024-02-14T11:57:44;3.50;;;2.50;;
48516;SDS011;34310;51.904;4.256;2024-02-14T12:00:10;2.35;;;2.15;;
48516;SDS011;34310;51.904;4.256;2024-02-14T12:02:37;2.15;;;1.98;;
48516;SDS011;34310;51.904;4.256;2024-02-14T12:05:04;2.15;;;1.95;;
48516;SDS011;34310;51.904;4.256;2024-02-14T12:07:31;2.33;;;2.10;;
48516;SDS011;34310;51.904;4.256;2024-02-14T12:09:58;2.60;;;2.40;;
48516;SDS011;34310;51.904;4.256;2024-02-14T12:12:25;2.10;;;2.00;;
48516;SDS011;34310;51.904;4.256;2024-02-14T12:14:52;2.50;;;2.30;;
48516;SDS011;34310;51.904;4.256;2024-02-14T12:17:19;2.08;;;1.88;;
48516;SDS011;34310;51.904;4.256;2024-02-14T12:19:45;2.17;;;1.98;;
48516;SDS011;34310;51.904;4.256;2024-02-14T12:22:12;2.20;;;2.00;;
48516;SDS011;34310;51.904;4.256;2024-02-14T12:24:39;2.30;;;2.10;;
48516;SDS011;34310;51.904;4.256;2024-02-14T12:27:05;2.40;;;2.05;;
48516;SDS011;34310;51.904;4.256;2024-02-14T12:29:34;2.08;;;1.83;;
48516;SDS011;34310;51.904;4.256;2024-02-14T12:32:05;2.50;;;2.10;;
48516;SDS011;34310;51.904;4.256;2024-02-14T12:34:32;2.10;;;1.90;;
48516;SDS011;34310;51.904;4.256;2024-02-14T12:37:00;1.95;;;1.67;;
48516;SDS011;34310;51.904;4.256;2024-02-14T12:39:26;1.70;;;1.60;;
48516;SDS011;34310;51.904;4.256;2024-02-14T12:41:53;1.70;;;1.60;;
48516;SDS011;34310;51.904;4.256;2024-02-14T12:44:20;2.30;;;2.00;;
48516;SDS011;34310;51.904;4.256;2024-02-14T12:46:46;1.95;;;1.77;;
48516;SDS011;34310;51.904;4.256;2024-02-14T12:49:13;1.88;;;1.65;;
48516;SDS011;34310;51.904;4.256;2024-02-14T12:51:40;2.55;;;1.77;;
48516;SDS011;34310;51.904;4.256;2024-02-14T12:54:06;1.88;;;1.70;;
48516;SDS011;34310;51.904;4.256;2024-02-14T12:56:33;2.42;;;1.98;;
48516;SDS011;34310;51.904;4.256;2024-02-14T12:59:00;1.80;;;1.70;;
48516;SDS011;34310;51.904;4.256;2024-02-14T13:01:26;2.00;;;1.75;;
48516;SDS011;34310;51.904;4.256;2024-02-14T13:03:53;1.80;;;1.60;;
48516;SDS011;34310;51.904;4.256;2024-02-14T13:06:20;2.30;;;1.50;;
48516;SDS011;34310;51.904;4.256;2024-02-14T13:08:46;1.50;;;1.40;;
48516;SDS011;34310;51.904;4.256;2024-02-14T13:11:13;1.40;;;1.30;;
48516;SDS011;34310;51.904;4.256;2024-02-14T13:13:39;1.50;;;1.40;;
48516;SDS011;34310;51.904;4.256;2024-02-14T13:16:06;1.20;;;1.10;;
48516;SDS011;34310;51.904;4.256;2024-02-14T13:18:33;1.20;;;1.10;;
48516;SDS011;34310;51.904;4.256;2024-02-14T13:21:00;1.50;;;1.40;;
48516;SDS011;34310;51.904;4.256;2024-02-14T13:23:27;1.33;;;1.20;;
48516;SDS011;34310;51.904;4.256;2024-02-14T13:25:54;2.35;;;1.40;;
48516;SDS011;34310;51.904;4.256;2024-02-14T13:28:20;1.20;;;1.05;;
48516;SDS011;34310;51.904;4.256;2024-02-14T13:30:47;1.20;;;1.10;;
48516;SDS011;34310;51.904;4.256;2024-02-14T13:33:13;1.33;;;1.17;;
48516;SDS011;34310;51.904;4.256;2024-02-14T13:35:40;1.45;;;1.13;;
48516;SDS011;34310;51.904;4.256;2024-02-14T13:38:07;1.20;;;1.10;;
48516;SDS011;34310;51.904;4.256;2024-02-14T13:40:34;1.85;;;1.08;;
48516;SDS011;34310;51.904;4.256;2024-02-14T13:43:01;0.90;;;0.90;;
48516;SDS011;34310;51.904;4.256;2024-02-14T13:45:30;1.38;;;1.00;;
48516;SDS011;34310;51.904;4.256;2024-02-14T13:48:07;1.00;;;0.90;;
48516;SDS011;34310;51.904;4.256;2024-02-14T13:50:34;0.98;;;0.98;;
48516;SDS011;34310;51.904;4.256;2024-02-14T13:53:00;0.93;;;0.90;;
48516;SDS011;34310;51.904;4.256;2024-02-14T13:55:27;0.70;;;0.70;;
48516;SDS011;34310;51.904;4.256;2024-02-14T13:57:53;0.80;;;0.80;;
48516;SDS011;34310;51.904;4.256;2024-02-14T14:00:20;0.80;;;0.80;;
48516;SDS011;34310;51.904;4.256;2024-02-14T14:02:47;0.88;;;0.88;;
48516;SDS011;34310;51.904;4.256;2024-02-14T14:05:13;1.20;;;1.00;;
48516;SDS011;34310;51.904;4.256;2024-02-14T14:07:43;1.85;;;0.80;;
48516;SDS011;34310;51.904;4.256;2024-02-14T14:10:23;0.70;;;0.70;;
48516;SDS011;34310;51.904;4.256;2024-02-14T14:12:50;1.13;;;1.02;;
48516;SDS011;34310;51.904;4.256;2024-02-14T14:15:17;1.05;;;0.80;;
48516;SDS011;34310;51.904;4.256;2024-02-14T14:17:43;0.80;;;0.80;;
48516;SDS011;34310;51.904;4.256;2024-02-14T14:20:10;0.77;;;0.77;;
48516;SDS011;34310;51.904;4.256;2024-02-14T14:22:37;0.88;;;0.70;;
48516;SDS011;34310;51.904;4.256;2024-02-14T14:25:04;0.70;;;0.70;;
48516;SDS011;34310;51.904;4.256;2024-02-14T14:27:31;0.70;;;0.70;;
48516;SDS011;34310;51.904;4.256;2024-02-14T14:29:57;0.88;;;0.70;;
48516;SDS011;34310;51.904;4.256;2024-02-14T14:32:24;1.00;;;0.82;;
48516;SDS011;34310;51.904;4.256;2024-02-14T14:34:51;1.50;;;0.77;;
48516;SDS011;34310;51.904;4.256;2024-02-14T14:37:18;0.90;;;0.75;;
48516;SDS011;34310;51.904;4.256;2024-02-14T14:39:44;0.88;;;0.70;;
48516;SDS011;34310;51.904;4.256;2024-02-14T14:42:11;1.08;;;0.70;;
48516;SDS011;34310;51.904;4.256;2024-02-14T14:44:38;1.10;;;0.73;;
48516;SDS011;34310;51.904;4.256;2024-02-14T14:47:04;0.75;;;0.70;;
48516;SDS011;34310;51.904;4.256;2024-02-14T14:49:31;1.88;;;0.73;;